Time;durP1;ratioP1;P1;durP2;ratioP2;P2;SDS_P1;SDS_P2;PMS_P1;PMS_P2;Temp;Humidity;BMP_temperature;BMP_pressure;BME280_temperature;BME280_humidity;BME280_pressure;Samples;Min_cycle;Max_cycle;Signal;HPM_P1;HPM_P2
2022/05/16 00:02:10;;;;;;;7.28;2.20;;;;;;;24.96;41.63;101395.66;5011480;28;20032;-56
2022/05/16 00:04:38;;;;;;;3.72;1.30;;;;;;;24.64;37.93;101392.66;5021799;28;20398;-56
2022/05/16 00:07:05;;;;;;;6.35;1.60;;;;;;;24.48;41.15;101406.47;5031687;28;20047;-56
2022/05/16 00:09:31;;;;;;;9.73;1.80;;;;;;;23.58;40.33;101394.91;5028975;28;20056;-56
2022/05/16 00:11:58;;;;;;;5.60;1.85;;;;;;;24.01;41.49;101387.09;5031732;28;20483;-56
2022/05/16 00:14:24;;;;;;;7.68;1.65;;;;;;;24.06;42.97;101384.31;5030158;28;20033;-56
2022/05/16 00:16:50;;;;;;;4.68;1.67;;;;;;;24.24;42.22;101391.84;5031862;28;20113;-57
2022/05/16 00:19:17;;;;;;;6.80;1.77;;;;;;;23.99;43.23;101390.13;5019450;28;20033;-57
2022/05/16 00:21:43;;;;;;;5.55;1.98;;;;;;;23.82;42.24;101406.88;5012238;28;20526;-57
2022/05/16 00:24:09;;;;;;;2.53;1.05;;;;;;;24.05;36.34;101397.19;5013016;28;20038;-57
2022/05/16 00:26:35;;;;;;;2.13;0.88;;;;;;;24.31;36.06;101389.59;5012694;28;20049;-57
2022/05/16 00:29:02;;;;;;;2.30;0.60;;;;;;;23.86;36.08;101386.06;5012338;28;20038;-56
2022/05/16 00:31:29;;;;;;;1.73;0.75;;;;;;;24.03;36.24;101382.16;5022378;28;20534;-57
2022/05/16 00:33:55;;;;;;;4.90;1.23;;;;;;;24.14;36.88;101376.31;5035280;28;20037;-57
2022/05/16 00:36:21;;;;;;;5.82;2.08;;;;;;;24.07;40.20;101384.03;5033439;28;20065;-56
2022/05/16 00:38:47;;;;;;;4.93;1.95;;;;;;;24.26;40.95;101386.09;5034814;28;20116;-57
2022/05/16 00:41:14;;;;;;;8.48;1.67;;;;;;;24.17;41.52;101388.63;5034623;28;20087;-56
2022/05/16 00:43:48;;;;;;;6.45;1.75;;;;;;;24.17;41.87;101397.66;5035288;28;20068;-57
2022/05/16 00:46:17;;;;;;;5.50;1.92;;;;;;;23.61;42.43;101388.91;5033122;28;20038;-56
2022/05/16 00:48:44;;;;;;;3.55;1.67;;;;;;;23.42;42.74;101389.50;5033427;28;20034;-56
2022/05/16 00:51:26;;;;;;;3.95;1.55;;;;;;;23.25;43.87;101399.13;5035446;28;20060;-56
2022/05/16 00:54:01;;;;;;;8.52;2.10;;;;;;;22.95;44.44;101392.66;5032799;28;20037;-56
2022/05/16 00:56:28;;;;;;;5.55;1.95;;;;;;;22.72;45.63;101377.63;5032876;28;20099;-56
2022/05/16 00:58:55;;;;;;;7.70;1.98;;;;;;;22.77;44.72;101380.38;5015201;28;20474;-56
2022/05/16 01:06:55;;;;;;;7.25;1.52;;;;;;;21.89;46.43;101377.78;5034466;28;20552;-56
2022/05/16 01:09:22;;;;;;;7.30;2.10;;;;;;;21.49;47.99;101378.47;5033358;28;20049;-56
2022/05/16 01:11:49;;;;;;;5.68;2.03;;;;;;;21.41;47.94;101379.78;5035033;28;20393;-56
2022/05/16 01:14:41;;;;;;;4.25;1.50;;;;;;;21.46;47.39;101366.19;5033037;28;20039;-56
2022/05/16 01:17:08;;;;;;;7.38;2.25;;;;;;;21.32;47.99;101382.22;5032530;28;20029;-56
2022/05/16 01:19:34;;;;;;;9.52;2.58;;;;;;;21.37;47.44;101370.50;5033705;28;20112;-56
2022/05/16 01:22:07;;;;;;;5.75;1.92;;;;;;;21.26;48.01;101377.75;5034271;28;20405;-56
2022/05/16 01:24:33;;;;;;;5.70;1.88;;;;;;;21.22;47.60;101379.41;5033200;28;20036;-56
2022/05/16 01:26:59;;;;;;;6.60;2.20;;;;;;;21.00;48.66;101373.28;5025598;28;20053;-56
2022/05/16 01:29:25;;;;;;;12.15;2.50;;;;;;;21.18;49.21;101377.47;5014170;28;20501;-56
2022/05/16 01:31:51;;;;;;;5.00;1.45;;;;;;;21.26;48.30;101371.50;5015367;28;20041;-56
2022/05/16 01:34:18;;;;;;;3.72;1.63;;;;;;;21.20;47.58;101365.22;5033921;28;20069;-56
2022/05/16 01:36:44;;;;;;;6.88;1.55;;;;;;;21.01;47.56;101369.47;5028801;28;20064;-55
2022/05/16 01:39:10;;;;;;;5.18;1.80;;;;;;;20.78;48.01;101367.97;5014093;28;20029;-55
2022/05/16 01:41:37;;;;;;;3.42;1.52;;;;;;;20.74;47.65;101380.44;5013428;28;20030;-55
2022/05/16 01:44:03;;;;;;;6.03;1.83;;;;;;;20.98;47.64;101383.59;5022598;28;20061;-55
2022/05/16 01:46:36;;;;;;;5.25;1.33;;;;;;;20.68;48.16;101387.75;5032252;28;20030;-55
2022/05/16 01:49:04;;;;;;;5.20;1.63;;;;;;;20.67;48.10;101396.97;5033619;28;20041;-56
2022/05/16 01:51:31;;;;;;;4.90;1.70;;;;;;;20.80;48.24;101380.22;5030759;28;20052;-55
2022/05/16 01:53:57;;;;;;;6.78;1.52;;;;;;;20.52;48.19;101383.25;5023958;28;20125;-55
2022/05/16 01:56:24;;;;;;;6.13;2.00;;;;;;;20.12;49.44;101389.91;5014225;28;20034;-55
2022/05/16 01:58:50;;;;;;;5.57;1.38;;;;;;;19.74;49.97;101393.56;5030182;28;20021;-55
2022/05/16 02:01:16;;;;;;;7.60;1.88;;;;;;;19.17;51.73;101394.72;5025791;28;20032;-56
2022/05/16 02:03:46;;;;;;;8.30;2.30;;;;;;;19.33;51.80;101389.50;5018365;28;20033;-56
2022/05/16 02:06:13;;;;;;;7.68;1.80;;;;;;;19.43;51.68;101397.75;5033317;28;20116;-56
2022/05/16 02:08:39;;;;;;;5.40;1.50;;;;;;;19.32;51.97;101390.53;5031155;28;20067;-56
2022/05/16 02:11:06;;;;;;;5.70;2.53;;;;;;;19.28;52.05;101405.72;5033499;28;20033;-56
2022/05/16 02:13:34;;;;;;;6.85;1.70;;;;;;;19.29;51.43;101415.50;5032057;28;20056;-55
2022/05/16 02:16:00;;;;;;;5.15;2.13;;;;;;;19.21;51.39;101414.00;5033257;28;20605;-56
2022/05/16 02:18:27;;;;;;;10.02;2.35;;;;;;;19.15;51.19;101413.09;5031050;28;20113;-56
2022/05/16 02:24:38;;;;;;;7.53;1.83;;;;;;;19.42;51.31;101418.66;5033316;28;20022;-56
2022/05/16 02:26:24;;;;;;;5.65;1.85;;;;;;;19.66;49.72;101418.47;5033564;28;20029;-55
2022/05/16 02:28:51;;;;;;;5.28;1.75;;;;;;;19.94;47.50;101409.28;5031135;28;20091;-56
2022/05/16 02:31:19;;;;;;;1.52;0.75;;;;;;;20.06;41.76;101409.97;5033368;28;20021;-56
2022/05/16 02:33:47;;;;;;;3.85;0.95;;;;;;;20.22;41.42;101411.78;5028996;28;20025;-56
2022/05/16 02:36:14;;;;;;;3.00;1.10;;;;;;;20.22;42.71;101422.66;5032708;28;20034;-56
2022/05/16 02:38:41;;;;;;;2.70;1.00;;;;;;;20.16;42.45;101423.69;5031638;28;20462;-56
2022/05/16 02:41:08;;;;;;;5.25;1.20;;;;;;;19.89;41.58;101420.09;5032730;28;20057;-56
2022/05/16 02:43:35;;;;;;;2.67;0.90;;;;;;;19.90;41.09;101427.16;5031587;28;20040;-56
2022/05/16 02:46:01;;;;;;;3.10;1.08;;;;;;;19.86;41.78;101428.75;5032742;28;20532;-56
2022/05/16 02:48:27;;;;;;;1.27;0.77;;;;;;;19.69;41.57;101424.19;5031165;28;20094;-56
2022/05/16 02:50:53;;;;;;;2.13;1.20;;;;;;;19.61;41.66;101427.38;5032524;28;20022;-57
2022/05/16 02:53:20;;;;;;;4.72;1.00;;;;;;;19.39;41.92;101427.31;5026143;28;20113;-56
2022/05/16 02:55:46;;;;;;;4.47;1.23;;;;;;;19.42;41.64;101425.97;5029532;28;20108;-57
2022/05/16 02:58:12;;;;;;;3.50;0.95;;;;;;;19.44;42.50;101415.72;5030344;28;20079;-57
2022/05/16 03:00:39;;;;;;;0.93;0.60;;;;;;;19.31;41.67;101421.47;5032211;28;20068;-57
2022/05/16 03:03:05;;;;;;;2.45;0.80;;;;;;;19.15;41.71;101426.69;5032546;28;20159;-56
2022/05/16 03:05:31;;;;;;;2.25;0.95;;;;;;;19.13;42.42;101428.00;5032361;28;20032;-56
2022/05/16 03:07:58;;;;;;;1.35;0.77;;;;;;;19.10;42.62;101429.34;5032524;28;20100;-56
2022/05/16 03:10:26;;;;;;;4.93;1.38;;;;;;;18.82;42.73;101430.25;5028148;28;20107;-56
2022/05/16 03:12:52;;;;;;;1.15;0.82;;;;;;;18.83;43.66;101433.78;5014878;28;20490;-56
2022/05/16 03:15:20;;;;;;;4.32;1.00;;;;;;;18.79;43.18;101435.34;5012641;28;20046;-56
2022/05/16 03:17:47;;;;;;;1.55;0.70;;;;;;;18.78;43.88;101439.13;5028310;28;20037;-56
2022/05/16 03:20:16;;;;;;;3.15;0.68;;;;;;;18.71;43.67;101437.41;5032331;28;20028;-56
2022/05/16 03:22:42;;;;;;;2.28;0.88;;;;;;;18.57;44.15;101427.06;5030399;28;20482;-57
2022/05/16 03:25:09;;;;;;;4.15;1.00;;;;;;;18.46;43.28;101431.50;5030599;28;20037;-56
2022/05/16 03:27:36;;;;;;;1.95;1.05;;;;;;;18.41;44.80;101444.97;5029099;28;20127;-56
2022/05/16 03:30:02;;;;;;;2.55;0.73;;;;;;;18.28;44.91;101437.13;5031777;28;20437;-57
2022/05/16 03:32:28;;;;;;;5.68;0.90;;;;;;;18.37;44.75;101435.66;5030060;28;20017;-56
2022/05/16 03:34:55;;;;;;;1.63;0.70;;;;;;;18.13;44.61;101441.19;5028621;28;20040;-56
2022/05/16 03:37:21;;;;;;;1.20;0.65;;;;;;;18.05;44.94;101440.75;5024670;28;20509;-57
2022/05/16 03:42:34;;;;;;;3.35;1.08;;;;;;;17.99;44.98;101434.44;5012908;28;20088;-56
2022/05/16 03:45:00;;;;;;;2.75;0.73;;;;;;;17.94;45.50;101439.75;5029645;28;20116;-57
2022/05/16 03:47:27;;;;;;;5.38;0.88;;;;;;;17.91;45.64;101430.19;5031563;28;20474;-56
2022/05/16 03:49:53;;;;;;;3.88;1.08;;;;;;;17.90;46.27;101441.28;5031721;28;20025;-57
2022/05/16 03:52:19;;;;;;;3.92;1.00;;;;;;;17.86;46.69;101443.63;5023276;28;20487;-56
2022/05/16 03:54:45;;;;;;;3.33;1.02;;;;;;;17.77;46.74;101442.38;5028531;28;20474;-57
2022/05/16 03:57:12;;;;;;;3.17;0.93;;;;;;;17.67;47.41;101451.06;5028916;28;20022;-55
2022/05/16 03:59:38;;;;;;;3.22;0.95;;;;;;;17.54;47.80;101432.34;5028555;28;20032;-55
2022/05/16 04:02:05;;;;;;;3.35;1.00;;;;;;;17.42;47.94;101439.66;5031669;28;20433;-55
2022/05/16 04:04:32;;;;;;;1.48;1.02;;;;;;;17.40;47.63;101431.78;5034674;28;20363;-55
2022/05/16 04:06:58;;;;;;;2.20;1.08;;;;;;;17.35;48.19;101431.69;5035907;28;20029;-55
2022/05/16 04:09:25;;;;;;;2.58;1.08;;;;;;;17.28;48.14;101443.69;5035431;28;20095;-55
2022/05/16 04:11:51;;;;;;;2.58;1.00;;;;;;;17.15;48.60;101432.03;5036136;28;20045;-55
2022/05/16 04:14:17;;;;;;;3.92;1.02;;;;;;;17.06;48.33;101438.88;5035781;28;20109;-55
2022/05/16 04:16:43;;;;;;;3.28;1.10;;;;;;;17.05;48.91;101436.41;5035676;28;20060;-55
2022/05/16 04:19:11;;;;;;;2.95;1.10;;;;;;;17.10;48.77;101439.19;5035775;28;20132;-55
2022/05/16 04:21:38;;;;;;;2.85;1.23;;;;;;;17.01;48.70;101427.94;5035662;28;20018;-55
2022/05/16 04:24:06;;;;;;;3.03;0.98;;;;;;;16.99;49.38;101443.56;5035724;28;20104;-55
2022/05/16 04:26:34;;;;;;;2.33;0.85;;;;;;;16.89;50.12;101460.38;5035516;28;20029;-56
2022/05/16 04:29:02;;;;;;;4.55;1.10;;;;;;;16.98;50.21;101450.00;5035253;28;20037;-55
2022/05/16 04:31:28;;;;;;;2.33;0.98;;;;;;;16.91;50.67;101465.53;5035252;28;20029;-55
2022/05/16 04:33:54;;;;;;;2.33;0.98;;;;;;;16.79;50.81;101470.09;5033524;28;20030;-55
2022/05/16 04:36:20;;;;;;;2.80;1.33;;;;;;;16.75;50.63;101474.31;5032542;28;20025;-55
2022/05/16 04:38:47;;;;;;;3.28;1.27;;;;;;;16.68;51.12;101462.75;5034796;28;20084;-56
2022/05/16 04:43:58;;;;;;;3.80;1.60;;;;;;;16.71;51.26;101460.47;5035550;28;20493;-56
2022/05/16 04:46:24;;;;;;;4.40;1.48;;;;;;;16.54;51.35;101468.34;5035202;28;20346;-55
2022/05/16 04:48:50;;;;;;;3.22;1.10;;;;;;;16.39;52.30;101480.66;5035129;28;20060;-55
2022/05/16 04:51:17;;;;;;;3.08;1.35;;;;;;;16.19;53.11;101486.28;5035233;28;20021;-55
2022/05/16 04:53:43;;;;;;;4.60;1.10;;;;;;;16.30;52.29;101496.34;5034922;28;20486;-55
2022/05/16 04:56:10;;;;;;;3.38;1.00;;;;;;;16.18;52.45;101504.38;5034843;28;20047;-55
2022/05/16 04:58:36;;;;;;;3.80;1.10;;;;;;;16.18;52.38;101511.66;5032397;28;20037;-55
2022/05/16 05:01:04;;;;;;;3.17;1.17;;;;;;;16.07;52.37;101515.94;5014836;28;20398;-54
2022/05/16 05:03:31;;;;;;;2.33;1.48;;;;;;;16.02;53.05;101503.13;5014939;28;20026;-54
2022/05/16 05:05:57;;;;;;;6.03;1.33;;;;;;;16.01;52.95;101509.56;5015180;28;20501;-55
2022/05/16 05:08:24;;;;;;;3.42;1.27;;;;;;;16.00;53.31;101513.31;5014655;28;20053;-55
2022/05/16 05:16:22;;;;;;;2.58;1.38;;;;;;;15.99;54.12;101532.44;5033896;28;20040;-55
2022/05/16 05:18:49;;;;;;;3.00;1.20;;;;;;;15.99;54.35;101530.59;5034418;28;20656;-55
2022/05/16 05:21:15;;;;;;;4.25;1.60;;;;;;;16.03;54.38;101533.63;5034803;28;20046;-55
2022/05/16 05:23:43;;;;;;;3.17;1.70;;;;;;;15.94;54.68;101527.72;5034834;28;20025;-55
2022/05/16 05:26:11;;;;;;;3.38;1.55;;;;;;;15.88;55.50;101535.88;5034612;28;20085;-55
2022/05/16 05:28:38;;;;;;;2.65;1.27;;;;;;;15.89;55.61;101524.88;5033712;28;20029;-55
2022/05/16 05:31:09;;;;;;;4.10;1.52;;;;;;;15.75;56.18;101534.16;5034423;28;20024;-55
2022/05/16 05:33:35;;;;;;;3.03;1.50;;;;;;;15.78;56.22;101536.41;5034373;28;20048;-55
2022/05/16 05:36:01;;;;;;;3.72;1.25;;;;;;;15.68;56.54;101536.09;5013347;28;20068;-56
2022/05/16 05:38:28;;;;;;;3.47;1.58;;;;;;;15.65;56.64;101534.66;5014100;28;20030;-55
2022/05/16 05:40:54;;;;;;;2.70;1.45;;;;;;;15.73;56.23;101537.09;5014991;28;20168;-55
2022/05/16 05:43:20;;;;;;;4.55;1.13;;;;;;;15.68;56.69;101542.31;5030846;28;20350;-55
2022/05/16 05:45:46;;;;;;;4.82;1.25;;;;;;;15.63;57.06;101544.84;5033970;28;20022;-55
2022/05/16 05:48:13;;;;;;;4.85;1.50;;;;;;;15.68;56.97;101538.78;5033766;28;20026;-55
2022/05/16 05:50:39;;;;;;;3.33;1.17;;;;;;;15.47;57.75;101543.50;5034377;28;20022;-55
2022/05/16 05:53:05;;;;;;;2.17;1.45;;;;;;;15.46;57.88;101552.66;5033832;28;20127;-55
2022/05/16 05:55:31;;;;;;;3.85;1.50;;;;;;;15.48;57.93;101545.16;5034057;28;20390;-55
2022/05/16 05:57:58;;;;;;;5.78;1.90;;;;;;;15.47;58.36;101545.38;5033513;28;20359;-55
2022/05/16 06:00:24;;;;;;;5.78;1.40;;;;;;;15.52;57.57;101546.38;5033857;28;20017;-56
2022/05/16 06:02:50;;;;;;;3.08;1.40;;;;;;;15.55;57.86;101551.34;5033350;28;20379;-55
2022/05/16 06:05:19;;;;;;;3.65;1.60;;;;;;;15.53;57.99;101548.03;5034083;28;20108;-55
2022/05/16 06:07:46;;;;;;;3.22;1.40;;;;;;;15.45;58.42;101551.00;5033188;28;20025;-55
2022/05/16 06:10:12;;;;;;;6.03;1.50;;;;;;;15.32;58.86;101543.88;5034006;28;20111;-55
2022/05/16 06:12:42;;;;;;;9.20;1.67;;;;;;;15.27;59.06;101548.28;5033764;28;20029;-55
2022/05/16 06:15:10;;;;;;;2.22;1.17;;;;;;;15.37;59.34;101542.34;5034170;28;20123;-54
2022/05/16 06:17:37;;;;;;;2.40;1.50;;;;;;;15.29;59.69;101541.59;5033896;28;20022;-55
2022/05/16 06:20:06;;;;;;;4.88;1.20;;;;;;;15.23;59.99;101552.44;5033326;28;20048;-55
2022/05/16 06:22:34;;;;;;;4.85;1.70;;;;;;;15.26;60.00;101546.59;5033542;28;20052;-53
2022/05/16 06:27:47;;;;;;;3.75;1.17;;;;;;;15.34;60.05;101542.81;5033184;28;20052;-54
2022/05/16 06:30:15;;;;;;;3.80;1.50;;;;;;;15.34;59.76;101543.63;5032007;28;20462;-55
2022/05/16 06:32:42;;;;;;;2.08;1.45;;;;;;;15.45;59.78;101544.78;5033359;28;20022;-54
2022/05/16 06:35:09;;;;;;;3.10;1.38;;;;;;;15.50;60.35;101540.38;5033166;28;20048;-54
2022/05/16 06:37:35;;;;;;;3.95;1.48;;;;;;;15.37;61.17;101537.78;5032973;28;20079;-55
2022/05/16 06:40:01;;;;;;;3.35;1.48;;;;;;;15.37;61.17;101548.56;5032826;28;20017;-53
2022/05/16 06:42:27;;;;;;;5.30;1.58;;;;;;;15.28;61.20;101539.94;5032633;28;20496;-55
2022/05/16 06:44:54;;;;;;;5.45;1.50;;;;;;;15.30;60.71;101542.41;5032808;28;20469;-53
2022/05/16 06:47:20;;;;;;;2.80;1.80;;;;;;;15.29;61.08;101547.00;5032948;28;20389;-54
2022/05/16 06:49:46;;;;;;;2.80;1.27;;;;;;;15.30;61.13;101551.34;5032611;28;20033;-54
2022/05/16 06:52:12;;;;;;;4.55;1.20;;;;;;;15.30;62.26;101553.22;5032994;28;20025;-54
2022/05/16 06:54:39;;;;;;;3.80;1.27;;;;;;;15.22;62.32;101551.63;5032692;28;20056;-54
2022/05/16 06:57:08;;;;;;;3.08;1.30;;;;;;;15.19;62.78;101543.97;5032551;28;20025;-54
2022/05/16 06:59:35;;;;;;;5.80;1.42;;;;;;;15.15;63.17;101550.81;5032433;28;20488;-54
2022/05/16 07:02:03;;;;;;;4.90;1.50;;;;;;;15.12;63.34;101545.06;5032850;28;20032;-54
2022/05/16 07:04:29;;;;;;;3.78;1.77;;;;;;;15.14;63.71;101537.56;5032560;28;20496;-54
2022/05/16 07:06:57;;;;;;;3.28;1.25;;;;;;;15.08;63.99;101543.84;5033006;28;20041;-54
2022/05/16 07:09:24;;;;;;;3.42;1.48;;;;;;;15.08;63.89;101541.16;5032047;28;20567;-54
2022/05/16 07:11:50;;;;;;;4.07;1.17;;;;;;;15.23;63.52;101530.88;5032193;28;20434;-52
2022/05/16 07:14:16;;;;;;;2.00;0.95;;;;;;;15.17;63.65;101537.97;5032580;28;20037;-54
2022/05/16 07:16:43;;;;;;;3.90;1.45;;;;;;;15.14;64.51;101532.19;5032571;28;20478;-55
2022/05/16 07:19:09;;;;;;;5.05;1.55;;;;;;;15.23;64.39;101529.00;5032401;28;20033;-54
2022/05/16 07:21:35;;;;;;;3.08;1.10;;;;;;;15.27;63.99;101526.69;5032538;28;20424;-54
2022/05/16 07:24:01;;;;;;;2.70;1.13;;;;;;;15.25;64.19;101539.56;5032211;28;20025;-53
2022/05/16 07:29:12;;;;;;;1.77;1.15;;;;;;;15.36;63.04;101529.94;5032163;28;20136;-55
2022/05/16 07:31:38;;;;;;;2.90;1.60;;;;;;;15.42;63.27;101532.56;5032385;28;20489;-54
2022/05/16 07:34:05;;;;;;;2.10;1.02;;;;;;;15.32;63.97;101527.69;5032247;28;20116;-53
2022/05/16 07:36:31;;;;;;;5.10;1.23;;;;;;;15.40;63.62;101533.84;5017837;28;20026;-55
2022/05/16 07:38:57;;;;;;;1.98;1.25;;;;;;;15.26;64.29;101533.09;5010962;28;20025;-53
2022/05/16 07:41:23;;;;;;;1.55;1.02;;;;;;;15.36;63.26;101527.22;5019656;28;20017;-55
2022/05/16 07:43:50;;;;;;;3.05;1.15;;;;;;;15.32;63.47;101529.53;5030657;28;20049;-54
2022/05/16 07:46:16;;;;;;;1.58;0.90;;;;;;;15.35;63.07;101531.81;5031748;28;20032;-54
2022/05/16 07:48:42;;;;;;;2.75;0.82;;;;;;;15.32;64.07;101537.63;5031935;28;20045;-54
2022/05/16 07:51:09;;;;;;;1.33;0.73;;;;;;;15.41;63.20;101538.19;5031769;28;20386;-53
2022/05/16 07:53:35;;;;;;;3.25;1.10;;;;;;;15.43;63.67;101547.69;5024435;28;20022;-55
2022/05/16 07:56:03;;;;;;;1.00;0.73;;;;;;;15.32;63.83;101545.72;5012102;28;20022;-54
2022/05/16 07:58:29;;;;;;;2.30;0.70;;;;;;;15.29;63.99;101536.22;5021866;28;20036;-54
2022/05/16 08:00:56;;;;;;;2.38;0.80;;;;;;;15.39;63.56;101537.59;5031379;28;20034;-54
2022/05/16 08:03:25;;;;;;;2.35;0.85;;;;;;;15.34;63.56;101537.41;5030255;28;20387;-53
2022/05/16 08:05:51;;;;;;;1.60;0.63;;;;;;;15.24;64.19;101546.81;5031491;28;20021;-53
2022/05/16 08:11:03;;;;;;;1.92;0.75;;;;;;;15.17;64.14;101548.75;5032222;28;20079;-54
2022/05/16 08:13:30;;;;;;;2.95;1.00;;;;;;;15.20;64.50;101545.59;5031906;28;20501;-55
2022/05/16 08:15:57;;;;;;;2.00;0.77;;;;;;;15.18;64.20;101554.97;5031406;28;20112;-54
2022/05/16 08:18:23;;;;;;;1.80;1.00;;;;;;;15.12;64.19;101551.28;5030503;28;20071;-53
2022/05/16 08:20:50;;;;;;;1.05;0.73;;;;;;;15.17;64.10;101543.34;5031374;28;20144;-53
2022/05/16 08:23:21;;;;;;;2.05;0.68;;;;;;;15.23;64.31;101549.75;5031219;28;20025;-54
2022/05/16 08:25:47;;;;;;;2.15;0.85;;;;;;;15.16;64.01;101543.59;5031222;28;20055;-54
2022/05/16 08:28:15;;;;;;;3.05;0.85;;;;;;;15.27;63.93;101524.00;5031376;28;20107;-54
2022/05/16 08:30:41;;;;;;;3.00;0.80;;;;;;;15.21;63.84;101516.75;5019521;28;20105;-53
2022/05/16 08:33:08;;;;;;;1.67;0.70;;;;;;;15.26;63.54;101525.03;5011666;28;20021;-54
2022/05/16 08:35:34;;;;;;;1.80;0.77;;;;;;;15.08;64.12;101533.88;5018216;28;20100;-54
2022/05/16 08:40:58;;;;;;;2.60;0.63;;;;;;;15.09;64.20;101529.31;5031185;28;20440;-54
2022/05/16 08:43:52;;;;;;;2.47;0.70;;;;;;;15.06;64.68;101525.19;5030868;28;20060;-54
2022/05/16 08:46:25;;;;;;;1.90;0.73;;;;;;;15.02;64.72;101518.56;5031126;28;20037;-54
2022/05/16 08:48:58;;;;;;;1.95;0.93;;;;;;;15.04;63.95;101506.50;5031094;28;20029;-55
2022/05/16 08:51:29;;;;;;;3.30;0.73;;;;;;;14.98;64.18;101510.09;5034950;28;20493;-54
2022/05/16 08:54:51;;;;;;;2.55;0.68;;;;;;;15.03;63.78;101521.03;5033922;28;20393;-55
2022/05/16 08:57:30;;;;;;;2.38;0.73;;;;;;;15.09;63.80;101507.75;4954369;29;20111;-54
2022/05/16 09:00:19;;;;;;;2.10;0.75;;;;;;;15.03;63.83;101510.25;5026002;28;20482;-55
2022/05/16 09:02:50;;;;;;;0.82;0.65;;;;;;;14.94;64.14;101517.00;5034751;28;20543;-54
2022/05/16 09:05:39;;;;;;;3.60;0.80;;;;;;;14.82;64.98;101534.88;5034498;28;20059;-53
2022/05/16 09:08:13;;;;;;;6.18;0.80;;;;;;;14.74;65.51;101535.97;5034255;28;20077;-54
2022/05/16 09:11:01;;;;;;;1.90;0.80;;;;;;;14.62;65.73;101529.63;5034428;28;20025;-54
2022/05/16 09:13:49;;;;;;;0.95;0.60;;;;;;;14.68;65.69;101530.63;5034486;28;20036;-54
2022/05/16 09:16:37;;;;;;;2.10;0.70;;;;;;;14.68;65.11;101541.41;5034488;28;20517;-53
2022/05/16 09:19:18;;;;;;;3.35;0.85;;;;;;;14.48;66.47;101545.00;5034293;28;20034;-54
2022/05/16 09:21:44;;;;;;;1.60;0.80;;;;;;;14.61;66.11;101548.72;5033884;28;20017;-54
2022/05/16 09:24:25;;;;;;;2.50;1.08;;;;;;;14.73;65.95;101557.75;5034271;28;20037;-54
2022/05/16 09:28:34;;;;;;;0.77;0.70;;;;;;;14.68;65.62;101539.53;5034133;28;20022;-53
2022/05/16 09:30:07;;;;;;;2.45;0.77;;;;;;;14.49;66.47;101543.16;5027339;28;20029;-54
2022/05/16 09:33:12;;;;;;;2.30;0.73;;;;;;;14.34;66.97;101543.41;5014241;28;20073;-54
2022/05/16 09:35:49;;;;;;;1.43;1.07;;;;;;;14.37;66.67;101539.44;5023456;28;20042;-53
2022/05/16 09:38:16;;;;;;;1.83;0.57;;;;;;;14.20;67.59;101548.00;5033934;28;20593;-53
2022/05/16 09:41:09;;;;;;;0.88;0.60;;;;;;;14.34;66.63;101542.59;5033652;28;20033;-54
2022/05/16 09:43:43;;;;;;;1.02;0.73;;;;;;;14.34;67.19;101556.88;5033599;28;20466;-54
2022/05/16 09:46:22;;;;;;;2.67;0.80;;;;;;;14.36;67.34;101562.03;5033783;28;20087;-53
2022/05/16 09:49:01;;;;;;;1.23;0.57;;;;;;;14.31;67.68;101559.16;5023560;28;20022;-53
2022/05/16 09:51:30;;;;;;;2.17;0.75;;;;;;;14.22;67.71;101561.28;5024716;28;20117;-53
2022/05/16 09:54:11;;;;;;;1.25;0.68;;;;;;;14.14;68.65;101556.09;5033678;28;20029;-54
2022/05/16 09:56:37;;;;;;;0.70;0.50;;;;;;;14.06;69.05;101556.34;5031411;28;20029;-54
2022/05/16 09:59:05;;;;;;;1.08;0.63;;;;;;;14.16;68.72;101545.97;5032550;28;20038;-53
2022/05/16 10:01:39;;;;;;;2.33;0.52;;;;;;;14.07;69.29;101539.16;5031931;28;20029;-53
2022/05/16 10:04:20;;;;;;;1.17;0.77;;;;;;;14.08;69.03;101538.13;5033500;28;20036;-54
2022/05/16 10:07:02;;;;;;;2.65;0.68;;;;;;;14.22;68.47;101542.44;5032509;28;20520;-54
2022/05/16 10:09:32;;;;;;;3.30;0.60;;;;;;;14.19;68.66;101540.97;5032893;28;20406;-54
2022/05/16 10:12:00;;;;;;;1.13;0.60;;;;;;;14.18;68.77;101533.94;5030442;28;20486;-53
2022/05/16 10:14:26;;;;;;;0.90;0.60;;;;;;;14.28;68.01;101530.81;5032502;28;20041;-55
2022/05/16 10:16:53;;;;;;;1.35;0.50;;;;;;;14.28;68.32;101533.50;5033137;28;20029;-53
2022/05/16 10:19:26;;;;;;;1.70;0.75;;;;;;;14.26;68.23;101533.69;5031674;28;20440;-54
2022/05/16 10:22:01;;;;;;;2.05;0.88;;;;;;;14.31;68.14;101537.59;5033038;28;20030;-53
2022/05/16 10:24:31;;;;;;;0.77;0.60;;;;;;;14.22;68.76;101531.66;5032042;28;20044;-53
2022/05/16 10:27:09;;;;;;;0.88;0.50;;;;;;;14.20;68.83;101542.63;5031253;28;20060;-55
2022/05/16 10:29:40;;;;;;;1.52;0.60;;;;;;;14.30;68.40;101536.78;5030065;28;20532;-54
2022/05/16 10:35:17;;;;;;;2.22;0.60;;;;;;;14.35;67.93;101536.16;5030278;28;20108;-54
2022/05/16 10:37:46;;;;;;;1.75;0.80;;;;;;;14.30;68.19;101552.13;5032682;28;20029;-54
2022/05/16 10:40:40;;;;;;;1.83;0.63;;;;;;;14.25;68.39;101550.06;5031026;28;20026;-53
2022/05/16 10:43:29;;;;;;;2.28;0.75;;;;;;;14.26;68.52;101543.63;5019043;28;20498;-53
2022/05/16 10:46:17;;;;;;;2.40;0.93;;;;;;;14.20;67.67;101549.88;5032127;28;20041;-55
2022/05/16 10:49:00;;;;;;;2.65;1.00;;;;;;;14.15;68.63;101550.50;5030515;28;20035;-54
2022/05/16 10:51:40;;;;;;;1.05;0.60;;;;;;;14.03;68.64;101551.38;5032857;28;20033;-54
2022/05/16 10:54:11;;;;;;;1.08;0.52;;;;;;;14.22;67.99;101555.88;5030720;28;20140;-54
2022/05/16 10:56:58;;;;;;;1.40;0.70;;;;;;;14.11;68.24;101551.97;5030998;28;20551;-53
2022/05/16 10:59:59;;;;;;;1.23;0.57;;;;;;;14.19;67.47;101559.00;5030534;28;20574;-53
2022/05/16 11:03:12;;;;;;;1.60;0.70;;;;;;;14.03;68.76;101551.38;5028964;28;20461;-54
2022/05/16 11:06:01;;;;;;;1.75;0.60;;;;;;;13.93;68.91;101546.44;5012781;28;20045;-54
2022/05/16 11:08:54;;;;;;;1.00;0.63;;;;;;;13.87;69.42;101537.34;5016336;28;20126;-53
2022/05/16 11:11:36;;;;;;;1.38;0.77;;;;;;;13.97;68.50;101543.09;5032740;28;20044;-53
2022/05/16 11:14:11;;;;;;;4.95;0.68;;;;;;;14.03;68.86;101546.00;5030464;28;20127;-53
2022/05/16 11:16:39;;;;;;;1.52;0.60;;;;;;;13.97;69.08;101540.41;5032080;28;20044;-54
2022/05/16 11:19:25;;;;;;;1.38;0.65;;;;;;;13.96;68.67;101541.47;5030282;28;20029;-52
2022/05/16 11:22:13;;;;;;;3.78;0.80;;;;;;;14.05;69.16;101538.53;5032278;28;20033;-54
2022/05/16 11:25:06;;;;;;;1.52;0.70;;;;;;;13.97;68.85;101535.03;5030331;28;20033;-53
2022/05/16 11:28:03;;;;;;;2.03;0.88;;;;;;;14.02;68.74;101542.47;5031585;28;20029;-53
2022/05/16 11:30:48;;;;;;;1.83;0.70;;;;;;;13.96;69.41;101546.84;5021409;28;20037;-52
2022/05/16 11:33:20;;;;;;;1.02;0.70;;;;;;;14.14;68.44;101542.66;5011151;28;20400;-54
2022/05/16 11:35:49;;;;;;;1.30;0.57;;;;;;;14.04;69.00;101547.63;5012253;28;20037;-54
2022/05/16 11:38:44;;;;;;;1.13;0.57;;;;;;;13.93;69.43;101551.81;5011948;28;20120;-53
2022/05/16 11:41:53;;;;;;;3.20;0.60;;;;;;;14.02;69.27;101545.16;5020481;28;20538;-54
2022/05/16 11:44:48;;;;;;;1.73;0.80;;;;;;;13.90;69.37;101546.88;5029961;28;20089;-54
2022/05/16 11:47:29;;;;;;;1.08;0.60;;;;;;;13.87;69.29;101547.28;5031484;28;20107;-53
2022/05/16 11:50:08;;;;;;;1.60;0.70;;;;;;;13.86;69.58;101549.13;5030780;28;20068;-53
2022/05/16 11:52:40;;;;;;;4.75;0.60;;;;;;;13.71;70.49;101548.53;5031791;28;20104;-54
2022/05/16 12:01:27;;;;;;;3.08;0.63;;;;;;;13.76;69.61;101535.28;5029287;28;20037;-52
2022/05/16 12:04:16;;;;;;;3.20;0.80;;;;;;;13.81;69.29;101532.78;5021249;28;20041;-53
2022/05/16 12:06:48;;;;;;;2.72;0.75;;;;;;;13.70;69.46;101541.50;5031699;28;20025;-53
2022/05/16 12:09:17;;;;;;;1.17;0.60;;;;;;;13.75;69.50;101544.41;5029649;28;20072;-53
2022/05/16 12:11:58;;;;;;;1.65;0.60;;;;;;;13.74;68.99;101532.81;5031417;28;20029;-53
2022/05/16 12:14:33;;;;;;;1.48;0.77;;;;;;;13.76;68.98;101535.28;5029471;28;20030;-53
2022/05/16 12:17:08;;;;;;;2.85;0.68;;;;;;;13.66;69.06;101538.44;5031583;28;20038;-54
2022/05/16 12:19:42;;;;;;;1.25;0.55;;;;;;;13.66;69.38;101537.59;5027588;28;20033;-52
2022/05/16 12:22:11;;;;;;;1.37;0.53;;;;;;;13.63;69.68;101540.69;5021616;28;20030;-53